Time;durP1;ratioP1;P1;durP2;ratioP2;P2;SDS_P1;SDS_P2;PMS_P1;PMS_P2;Temp;Humidity;BMP_temperature;BMP_pressure;BME280_temperature;BME280_humidity;BME280_pressure;Samples;Min_cycle;Max_cycle;Signal;HPM_P1;HPM_P2
2022/07/30 00:03:46;;;;;;;22.10;19.03;;;;;;;22.77;62.54;97886.16;8019765;29;20322;-80
2022/07/30 00:07:49;;;;;;;21.60;19.60;;;;;;;22.78;62.40;97891.31;8033321;29;20397;-80
2022/07/30 00:11:53;;;;;;;19.37;17.47;;;;;;;22.84;62.17;97888.06;8033374;29;20234;-81
2022/07/30 00:15:56;;;;;;;18.53;16.77;;;;;;;22.74;62.48;97883.84;8033589;29;20239;-81
2022/07/30 00:19:59;;;;;;;17.50;15.80;;;;;;;22.77;62.49;97888.81;8033439;29;20246;-81
2022/07/30 00:24:05;;;;;;;17.40;15.77;;;;;;;22.78;62.02;97887.84;8032848;29;20242;-83
2022/07/30 00:28:09;;;;;;;17.57;15.97;;;;;;;22.74;62.74;97889.13;8033098;29;20245;-83
2022/07/30 00:32:12;;;;;;;19.67;17.70;;;;;;;22.72;62.60;97889.25;8032951;29;20273;-81
2022/07/30 00:36:14;;;;;;;19.27;17.27;;;;;;;22.74;62.42;97889.94;8032808;29;20245;-80
2022/07/30 00:40:17;;;;;;;19.57;17.60;;;;;;;22.72;62.96;97891.91;8032820;29;20238;-82
2022/07/30 00:44:22;;;;;;;23.03;19.73;;;;;;;22.76;62.49;97905.66;8032339;29;20258;-83
2022/07/30 00:48:25;;;;;;;22.70;20.40;;;;;;;22.66;62.90;97897.78;8031454;29;20281;-85
2022/07/30 00:52:28;;;;;;;24.20;21.60;;;;;;;22.61;62.90;97908.75;8032609;29;20268;-83
2022/07/30 00:56:31;;;;;;;21.50;19.33;;;;;;;22.72;62.81;97909.56;8032321;29;20287;-82
2022/07/30 01:00:35;;;;;;;21.67;19.27;;;;;;;22.63;62.84;97908.59;8061890;29;20427;-83
2022/07/30 01:04:37;;;;;;;21.20;19.20;;;;;;;22.63;63.07;97913.88;8062342;29;20238;-83
2022/07/30 01:08:42;;;;;;;20.87;18.57;;;;;;;22.67;62.72;97912.63;8062756;29;20528;-82
2022/07/30 01:12:45;;;;;;;24.50;22.00;;;;;;;22.55;63.91;97913.78;8062276;29;20237;-82
2022/07/30 01:16:50;;;;;;;22.63;20.27;;;;;;;22.61;63.03;97910.56;8061804;29;20230;-80
2022/07/30 01:21:01;;;;;;;19.73;17.67;;;;;;;22.64;62.69;97911.09;8062117;29;20248;-82
2022/07/30 01:25:09;;;;;;;21.90;19.80;;;;;;;22.59;63.31;97909.88;8062072;29;20252;-82
2022/07/30 01:29:15;;;;;;;17.77;16.03;;;;;;;22.62;62.77;97910.44;8061635;29;20241;-82
2022/07/30 01:33:18;;;;;;;18.50;16.60;;;;;;;22.62;63.07;97920.16;8061782;29;20238;-81
2022/07/30 01:37:21;;;;;;;19.03;17.23;;;;;;;22.54;62.55;97910.34;8061870;29;20233;-85
2022/07/30 01:41:25;;;;;;;19.37;17.37;;;;;;;22.60;63.14;97917.66;8061716;29;20261;-84
2022/07/30 01:45:30;;;;;;;18.80;17.00;;;;;;;22.59;62.89;97912.53;8061365;29;20254;-85
2022/07/30 01:49:44;;;;;;;18.57;16.80;;;;;;;22.53;63.19;97910.47;8061521;29;20547;-82
2022/07/30 01:53:48;;;;;;;18.30;16.20;;;;;;;22.60;62.80;97906.28;8037769;29;20239;-77
2022/07/30 01:57:51;;;;;;;17.50;15.90;;;;;;;22.52;62.82;97917.53;8030235;29;20560;-82
2022/07/30 02:01:55;;;;;;;18.47;16.67;;;;;;;22.45;62.89;97922.56;8030577;29;20230;-81
2022/07/30 02:06:01;;;;;;;17.70;15.90;;;;;;;22.51;62.70;97915.06;8030247;29;20246;-81
2022/07/30 02:10:07;;;;;;;17.87;16.30;;;;;;;22.55;62.56;97916.44;8030277;29;20266;-81
2022/07/30 02:14:14;;;;;;;17.13;15.30;;;;;;;22.56;62.52;97923.34;8012161;29;20236;-81
2022/07/30 02:18:23;;;;;;;17.13;15.43;;;;;;;22.61;62.54;97915.84;8000487;29;20243;-81
2022/07/30 02:22:28;;;;;;;17.00;15.47;;;;;;;22.62;62.34;97912.25;8000201;29;20240;-81
2022/07/30 02:26:32;;;;;;;16.47;14.87;;;;;;;22.52;62.93;97911.44;7999733;29;20307;-82
2022/07/30 02:30:38;;;;;;;17.20;15.60;;;;;;;22.50;63.00;97914.22;8000135;29;20437;-82
2022/07/30 02:34:43;;;;;;;17.73;16.03;;;;;;;22.37;63.14;97903.16;7999897;29;20239;-82
2022/07/30 02:38:49;;;;;;;16.00;14.50;;;;;;;22.44;62.70;97907.69;7999844;29;20293;-81
2022/07/30 02:42:53;;;;;;;16.73;14.90;;;;;;;22.47;63.08;97900.50;8022389;29;20243;-81
2022/07/30 02:46:57;;;;;;;17.60;15.70;;;;;;;22.38;63.02;97903.00;8029830;29;20231;-81
2022/07/30 02:51:08;;;;;;;16.80;15.17;;;;;;;22.37;62.96;97900.50;8029867;29;20249;-82
2022/07/30 02:55:12;;;;;;;15.27;13.83;;;;;;;22.45;62.49;97909.38;8029752;29;20231;-81
2022/07/30 02:59:16;;;;;;;15.60;13.97;;;;;;;22.29;62.71;97903.03;8049786;29;20238;-80
2022/07/30 03:03:20;;;;;;;13.90;12.70;;;;;;;22.32;62.50;97897.50;8060075;29;20336;-81
2022/07/30 03:07:25;;;;;;;15.57;12.20;;;;;;;22.30;62.35;97895.00;8060327;29;20238;-82
2022/07/30 03:11:29;;;;;;;13.33;11.80;;;;;;;22.22;62.39;97879.03;8064185;29;20241;-81
2022/07/30 03:15:34;;;;;;;13.07;11.80;;;;;;;22.25;62.28;97889.31;8065674;29;20238;-82
2022/07/30 03:19:42;;;;;;;14.10;12.70;;;;;;;22.21;62.48;97887.91;8065654;29;20238;-82
2022/07/30 03:23:48;;;;;;;16.30;14.60;;;;;;;22.16;62.56;97893.63;8065261;29;20238;-82
2022/07/30 03:27:51;;;;;;;17.37;15.57;;;;;;;22.08;62.96;97896.13;8064990;29;20513;-81
2022/07/30 03:31:54;;;;;;;16.63;14.83;;;;;;;22.17;62.35;97894.44;8065165;29;20231;-81
2022/07/30 03:35:58;;;;;;;19.23;15.73;;;;;;;22.11;62.33;97903.75;8065225;29;20245;-82
2022/07/30 03:40:03;;;;;;;17.10;15.20;;;;;;;22.09;62.37;97902.25;8065074;29;20230;-83
2022/07/30 03:44:06;;;;;;;19.67;15.53;;;;;;;22.06;62.57;97898.06;8064883;29;20352;-82
2022/07/30 03:48:10;;;;;;;17.23;15.67;;;;;;;22.04;62.45;97898.19;8065040;29;20238;-82
2022/07/30 03:52:13;;;;;;;18.87;16.97;;;;;;;21.95;63.02;97917.53;8064846;29;20244;-81
2022/07/30 03:56:18;;;;;;;19.57;17.60;;;;;;;21.86;62.95;97921.00;8064918;29;20249;-82
2022/07/30 04:00:21;;;;;;;20.27;18.13;;;;;;;21.76;62.97;97934.19;8064755;29;20563;-81
2022/07/30 04:04:23;;;;;;;19.27;17.47;;;;;;;21.86;62.66;97932.38;8064708;29;20240;-81
2022/07/30 04:08:28;;;;;;;20.57;18.57;;;;;;;21.88;62.33;97928.78;8064561;29;20254;-82
2022/07/30 04:12:32;;;;;;;20.60;18.67;;;;;;;21.72;63.00;97930.16;8064130;29;20242;-82
2022/07/30 04:16:39;;;;;;;20.63;18.73;;;;;;;21.88;62.67;97941.97;8063998;29;20230;-83
2022/07/30 04:20:46;;;;;;;20.47;18.57;;;;;;;21.80;62.54;97943.50;8063601;29;20238;-82
2022/07/30 04:24:49;;;;;;;22.03;19.73;;;;;;;21.82;63.28;97953.91;8032546;29;20338;-81
2022/07/30 04:28:53;;;;;;;21.87;19.87;;;;;;;21.94;62.55;97946.66;8032910;29;20250;-80
2022/07/30 04:32:56;;;;;;;24.83;22.30;;;;;;;21.81;62.83;97945.13;8032978;29;20282;-82
2022/07/30 04:36:58;;;;;;;20.73;18.77;;;;;;;21.89;62.79;97951.53;8032837;29;20249;-82
2022/07/30 04:41:02;;;;;;;23.50;21.20;;;;;;;21.88;62.80;97958.59;8032856;29;20231;-82
2022/07/30 04:45:07;;;;;;;23.50;21.17;;;;;;;21.91;62.52;97955.66;8032534;29;20263;-82
2022/07/30 04:49:14;;;;;;;22.17;20.07;;;;;;;21.97;62.13;97956.91;8032597;29;20238;-80
2022/07/30 04:53:18;;;;;;;22.97;20.67;;;;;;;22.05;61.92;97959.72;8032426;29;20332;-81
2022/07/30 04:57:21;;;;;;;24.23;20.30;;;;;;;22.06;61.72;97962.19;8032155;29;20313;-81
2022/07/30 05:01:31;;;;;;;23.33;20.40;;;;;;;21.98;62.04;97962.06;8032188;29;20233;-82
2022/07/30 05:05:42;;;;;;;21.77;19.53;;;;;;;22.10;61.81;97977.72;8032158;29;20250;-82
2022/07/30 05:09:46;;;;;;;21.10;18.97;;;;;;;22.11;61.92;97988.13;8032004;29;20233;-82
2022/07/30 05:13:48;;;;;;;18.40;16.33;;;;;;;22.10;61.65;97989.09;8031359;29;20239;-81
2022/07/30 05:17:52;;;;;;;18.67;16.67;;;;;;;22.10;61.33;97986.47;8031551;29;20233;-81
2022/07/30 05:21:55;;;;;;;17.77;16.00;;;;;;;22.09;61.34;97986.63;8031341;29;20239;-81
2022/07/30 05:25:58;;;;;;;17.33;15.80;;;;;;;21.99;61.33;97989.25;8031366;29;20273;-81
2022/07/30 05:30:01;;;;;;;18.00;16.03;;;;;;;21.84;62.36;97987.03;8031323;29;20238;-81
2022/07/30 05:34:06;;;;;;;18.00;16.13;;;;;;;21.98;61.26;97992.88;8030743;29;20246;-81
2022/07/30 05:38:09;;;;;;;16.50;14.93;;;;;;;22.04;61.43;97995.75;8031301;29;20414;-82
2022/07/30 05:42:11;;;;;;;16.10;14.50;;;;;;;22.13;60.82;97998.56;8031133;29;20243;-81
2022/07/30 05:46:14;;;;;;;16.10;14.50;;;;;;;21.96;61.41;97995.63;8030796;29;20434;-81
2022/07/30 05:50:19;;;;;;;15.37;13.73;;;;;;;22.13;61.12;97998.56;8030873;29;20244;-81
2022/07/30 05:54:22;;;;;;;16.57;14.97;;;;;;;22.15;60.78;98002.72;8030901;29;20242;-82
2022/07/30 05:58:26;;;;;;;16.80;14.43;;;;;;;22.24;60.99;97993.97;8030545;29;20234;-81
2022/07/30 06:02:29;;;;;;;14.70;13.30;;;;;;;22.39;60.61;98006.72;8030554;29;20226;-81
2022/07/30 06:06:33;;;;;;;14.67;13.13;;;;;;;22.29;61.33;98005.91;8030362;29;20242;-81
2022/07/30 06:10:36;;;;;;;14.00;12.53;;;;;;;22.32;61.03;97997.72;8030546;29;20246;-82
2022/07/30 06:14:39;;;;;;;13.20;11.93;;;;;;;22.33;60.22;98002.88;8030217;29;20313;-83
2022/07/30 06:18:42;;;;;;;14.53;11.93;;;;;;;22.19;60.41;97996.19;8030655;29;20270;-82
2022/07/30 06:22:46;;;;;;;13.80;10.07;;;;;;;22.50;59.52;98003.91;8038236;29;20250;-82
2022/07/30 06:26:49;;;;;;;10.00;9.10;;;;;;;22.49;59.26;98012.00;8028979;29;20241;-81
2022/07/30 06:30:53;;;;;;;9.23;7.60;;;;;;;22.59;58.09;98000.44;8029601;29;20234;-82
2022/07/30 06:34:56;;;;;;;9.67;7.93;;;;;;;22.54;59.14;98000.06;8022402;29;20237;-82
2022/07/30 06:39:07;;;;;;;8.20;7.43;;;;;;;22.82;57.69;98006.19;8024783;29;20530;-82
2022/07/30 06:43:10;;;;;;;7.57;6.63;;;;;;;22.91;57.88;98001.03;8000710;29;20235;-81
2022/07/30 06:47:13;;;;;;;7.73;6.97;;;;;;;22.89;57.63;98005.63;8005539;29;20238;-81
2022/07/30 06:51:16;;;;;;;7.33;6.63;;;;;;;22.97;56.67;98003.91;8005609;29;20431;-81
2022/07/30 06:55:20;;;;;;;6.03;5.37;;;;;;;23.14;56.36;98012.91;8006116;29;20435;-82
2022/07/30 06:59:23;;;;;;;6.73;6.03;;;;;;;23.06;57.03;98001.44;8025656;29;20442;-82
2022/07/30 07:03:26;;;;;;;7.00;5.93;;;;;;;23.19;56.66;98007.19;8035683;29;20249;-81
2022/07/30 07:07:42;;;;;;;5.80;4.90;;;;;;;23.08;55.88;98012.69;8035398;29;20239;-83
2022/07/30 07:12:01;;;;;;;5.20;4.70;;;;;;;23.03;56.85;98005.19;8034956;29;20547;-85
2022/07/30 07:16:04;;;;;;;6.83;5.53;;;;;;;23.28;55.67;98021.31;8035316;29;20243;-80
2022/07/30 07:20:08;;;;;;;6.13;5.27;;;;;;;23.42;55.28;98018.19;8035375;29;20247;-83
2022/07/30 07:24:11;;;;;;;5.67;4.97;;;;;;;23.47;55.09;98021.22;8034944;29;20231;-85
2022/07/30 07:28:15;;;;;;;5.03;4.53;;;;;;;23.50;55.62;98020.91;8034703;29;20412;-80
2022/07/30 07:32:18;;;;;;;4.00;3.60;;;;;;;23.46;54.87;98026.66;8034771;29;20236;-80
2022/07/30 07:36:20;;;;;;;5.13;3.47;;;;;;;23.43;54.81;98025.94;8034560;29;20424;-81
2022/07/30 07:40:24;;;;;;;4.60;3.30;;;;;;;23.60;54.75;98034.06;8034725;29;20238;-82
2022/07/30 07:44:28;;;;;;;3.00;2.73;;;;;;;23.71;54.37;98039.16;8034403;29;20249;-83
2022/07/30 07:48:30;;;;;;;3.17;2.80;;;;;;;23.72;54.44;98037.34;8034422;29;20601;-82
2022/07/30 07:52:33;;;;;;;3.40;3.00;;;;;;;23.71;54.18;98038.31;8034510;29;20561;-83
2022/07/30 07:56:36;;;;;;;3.70;3.30;;;;;;;23.76;54.39;98038.69;8033353;29;20244;-83
2022/07/30 08:00:40;;;;;;;8.00;4.60;;;;;;;23.57;53.81;98040.50;8033855;29;20254;-81
2022/07/30 08:04:44;;;;;;;7.63;4.50;;;;;;;23.59;55.08;98038.53;8033809;29;20242;-81
2022/07/30 08:08:47;;;;;;;5.30;4.40;;;;;;;23.71;55.04;98044.44;8033449;29;20546;-82
2022/07/30 08:12:50;;;;;;;5.97;4.77;;;;;;;23.81;54.62;98039.94;8033202;29;20246;-81
2022/07/30 08:16:54;;;;;;;4.70;4.00;;;;;;;23.88;53.86;98048.13;8033390;29;20246;-80
2022/07/30 08:20:57;;;;;;;4.07;3.50;;;;;;;24.11;52.42;98048.50;8033509;29;20510;-81
2022/07/30 08:25:00;;;;;;;7.13;3.90;;;;;;;24.14;51.89;98048.19;8032893;29;20235;-81
2022/07/30 08:29:05;;;;;;;4.27;3.43;;;;;;;24.03;52.54;98044.94;8032860;29;20252;-82
2022/07/30 08:33:10;;;;;;;3.73;3.37;;;;;;;24.25;51.79;98049.75;8032940;29;20239;-82
2022/07/30 08:37:13;;;;;;;4.17;3.67;;;;;;;24.14;51.76;98061.44;8032716;29;20240;-76
2022/07/30 08:41:18;;;;;;;5.20;3.57;;;;;;;24.55;51.55;98061.78;8032727;29;20243;-77
2022/07/30 08:45:21;;;;;;;5.23;4.43;;;;;;;24.44;52.10;98072.56;8032488;29;20240;-79
2022/07/30 08:49:38;;;;;;;7.63;3.53;;;;;;;24.70;51.50;98072.63;8032617;29;20231;-80
2022/07/30 08:53:42;;;;;;;9.83;3.80;;;;;;;24.81;51.48;98071.56;8032272;29;20243;-78
2022/07/30 08:57:45;;;;;;;5.80;3.17;;;;;;;25.14;50.72;98074.38;8031902;29;20253;-78
2022/07/30 09:01:48;;;;;;;4.93;3.73;;;;;;;25.00;50.47;98082.91;8031861;29;20240;-78
2022/07/30 09:05:52;;;;;;;5.60;3.47;;;;;;;24.92;50.60;98092.50;8031691;29;20418;-76
2022/07/30 09:09:56;;;;;;;4.00;3.60;;;;;;;24.72;51.73;98091.03;8031265;29;20230;-80
2022/07/30 09:14:08;;;;;;;5.80;3.30;;;;;;;24.85;50.96;98099.38;8031628;29;20236;-79
2022/07/30 09:18:11;;;;;;;4.17;3.40;;;;;;;24.78;51.16;98096.50;8031430;29;20260;-79
2022/07/30 09:22:16;;;;;;;6.30;3.70;;;;;;;24.84;50.40;98095.06;8031559;29;20290;-79
2022/07/30 09:26:18;;;;;;;6.30;3.40;;;;;;;24.82;50.49;98098.88;8031281;29;20242;-80
2022/07/30 09:30:21;;;;;;;3.50;3.20;;;;;;;25.07;50.18;98098.03;8031199;29;20238;-80
2022/07/30 09:34:28;;;;;;;4.40;2.70;;;;;;;25.14;48.17;98092.94;8031374;29;20232;-80
2022/07/30 09:38:45;;;;;;;3.10;2.60;;;;;;;25.75;45.98;98091.88;8031288;29;20247;-80
2022/07/30 09:42:48;;;;;;;4.97;2.83;;;;;;;26.14;45.36;98096.66;8038293;29;20224;-79
2022/07/30 09:46:50;;;;;;;4.90;2.93;;;;;;;25.97;45.69;98091.47;8030811;29;20268;-80
2022/07/30 09:50:54;;;;;;;3.43;3.00;;;;;;;26.65;43.76;98085.91;8030754;29;20238;-81
2022/07/30 09:55:00;;;;;;;4.20;2.60;;;;;;;27.30;42.49;98084.97;8030960;29;20250;-80
2022/07/30 09:59:05;;;;;;;2.93;2.50;;;;;;;27.92;41.15;98087.88;8031201;29;20248;-80
2022/07/30 10:03:23;;;;;;;3.83;2.40;;;;;;;28.42;38.86;98086.50;8031006;29;20421;-80
2022/07/30 10:07:50;;;;;;;3.60;2.10;;;;;;;27.42;41.19;98077.44;8030597;29;20245;-80
2022/07/30 10:11:55;;;;;;;4.50;2.50;;;;;;;27.98;40.02;98092.47;8053975;29;20302;-80
2022/07/30 10:15:58;;;;;;;4.63;2.80;;;;;;;27.90;39.46;98087.22;8060739;29;20351;-80
2022/07/30 10:20:02;;;;;;;4.20;2.50;;;;;;;28.88;37.85;98072.31;8064833;29;20240;-81
2022/07/30 10:24:11;;;;;;;4.90;2.60;;;;;;;29.27;37.80;98069.41;8055858;29;20538;-82
2022/07/30 10:28:15;;;;;;;7.87;2.80;;;;;;;28.68;38.47;98072.00;8055825;29;20240;-82
2022/07/30 10:32:19;;;;;;;4.13;2.40;;;;;;;29.80;35.53;98067.41;8055826;29;20231;-83
2022/07/30 10:36:32;;;;;;;4.53;2.57;;;;;;;28.15;38.72;98059.41;8055831;29;20242;-85
2022/07/30 10:40:39;;;;;;;3.87;2.50;;;;;;;27.58;40.25;98062.41;8055936;29;20315;-86
2022/07/30 10:45:11;;;;;;;2.93;2.30;;;;;;;27.15;40.76;98068.06;8055636;29;20300;-85
2022/07/30 10:49:19;;;;;;;8.90;2.50;;;;;;;26.72;41.90;98072.78;8067378;29;20514;-85
2022/07/30 10:53:36;;;;;;;9.17;2.77;;;;;;;26.38;43.10;98078.25;8070949;29;20236;-84
2022/07/30 10:57:57;;;;;;;5.97;2.80;;;;;;;26.33;44.88;98074.28;8070816;29;20259;-86
2022/07/30 11:02:10;;;;;;;6.63;2.70;;;;;;;26.20;45.50;98076.59;8064408;29;20236;-80
2022/07/30 11:06:28;;;;;;;4.37;3.00;;;;;;;26.14;44.64;98075.44;8070764;29;20240;-86
2022/07/30 11:10:36;;;;;;;4.67;2.37;;;;;;;27.25;43.18;98068.69;8070819;29;20234;-85
2022/07/30 11:14:58;;;;;;;3.70;2.50;;;;;;;26.80;42.67;98067.47;8070522;29;20243;-85
2022/07/30 11:19:15;;;;;;;5.37;2.30;;;;;;;27.25;42.22;98063.38;8070424;29;20241;-84
2022/07/30 11:23:39;;;;;;;4.23;2.30;;;;;;;28.83;40.28;98048.88;8070735;29;20235;-84
2022/07/30 11:27:45;;;;;;;5.37;2.40;;;;;;;27.90;39.81;98049.97;8069616;29;20336;-85
2022/07/30 11:31:50;;;;;;;4.13;2.40;;;;;;;27.49;41.15;98050.97;8065687;29;20236;-83
2022/07/30 11:36:08;;;;;;;3.83;2.43;;;;;;;27.28;41.84;98055.06;8065601;29;20252;-85
2022/07/30 11:40:14;;;;;;;4.97;2.60;;;;;;;27.08;41.53;98043.97;8065393;29;20259;-85
2022/07/30 11:44:27;;;;;;;3.43;2.20;;;;;;;26.89;40.84;98039.88;8065363;29;20237;-85
2022/07/30 11:48:30;;;;;;;5.67;2.50;;;;;;;26.53;40.86;98032.28;8065779;29;20244;-85
2022/07/30 11:52:34;;;;;;;4.43;2.50;;;;;;;26.64;40.99;98039.09;8065644;29;20246;-88
2022/07/30 11:56:37;;;;;;;6.53;2.47;;;;;;;26.85;40.43;98048.38;8065542;29;20435;-83
2022/07/30 12:00:44;;;;;;;5.67;2.13;;;;;;;26.77;40.33;98054.53;8065472;29;20240;-91
2022/07/30 12:04:47;;;;;;;4.40;2.73;;;;;;;26.56;39.89;98047.06;8065242;29;20236;-88
2022/07/30 12:08:52;;;;;;;3.23;2.30;;;;;;;26.52;39.96;98053.69;8064897;29;20420;-86
2022/07/30 12:13:08;;;;;;;3.53;2.30;;;;;;;26.59;40.04;98049.41;8064871;29;20244;-89
2022/07/30 12:17:11;;;;;;;5.20;2.30;;;;;;;26.70;39.87;98053.53;8065654;29;20418;-79
2022/07/30 12:21:17;;;;;;;8.80;2.73;;;;;;;26.84;38.74;98042.19;8065487;29;20533;-87
2022/07/30 12:25:21;;;;;;;9.23;3.00;;;;;;;27.37;38.12;98045.22;8064644;29;20242;-82
2022/07/30 12:29:25;;;;;;;6.33;3.00;;;;;;;28.15;36.67;98048.78;8064496;29;20250;-88
2022/07/30 12:33:28;;;;;;;7.70;3.20;;;;;;;28.15;34.99;98045.28;8064810;29;20231;-84
2022/07/30 12:37:31;;;;;;;6.30;2.90;;;;;;;28.91;34.97;98046.13;8064464;29;20266;-91
2022/07/30 12:41:42;;;;;;;9.37;3.40;;;;;;;28.51;34.58;98045.47;8064200;29;20240;-91
2022/07/30 12:45:45;;;;;;;7.87;3.00;;;;;;;28.27;35.50;98052.69;8064236;29;20395;-86
2022/07/30 12:49:57;;;;;;;8.47;3.17;;;;;;;27.53;35.92;98044.34;8057071;29;20439;-81
2022/07/30 12:54:15;;;;;;;17.30;3.30;;;;;;;27.82;35.45;98042.84;8064102;29;20242;-86
2022/07/30 12:58:22;;;;;;;10.47;2.90;;;;;;;28.66;34.20;98025.06;8063530;29;20237;-85
2022/07/30 13:02:31;;;;;;;4.93;2.70;;;;;;;28.76;32.75;98021.28;8064097;29;20431;-88
2022/07/30 13:06:34;;;;;;;7.03;2.77;;;;;;;29.04;31.34;98013.50;8063149;29;20245;-85
2022/07/30 13:10:37;;;;;;;5.23;2.33;;;;;;;29.39;31.11;98013.75;8063626;29;20252;-84
2022/07/30 13:14:42;;;;;;;4.77;2.43;;;;;;;29.48;29.58;98004.63;8063383;29;20234;-85
2022/07/30 13:18:45;;;;;;;4.83;2.13;;;;;;;30.01;29.49;98007.06;8063366;29;20528;-84
2022/07/30 13:22:47;;;;;;;3.53;2.20;;;;;;;30.23;28.72;97999.81;8062783;29;20463;-84
2022/07/30 13:26:50;;;;;;;4.70;2.20;;;;;;;29.43;29.04;98004.34;8062868;29;20264;-85
2022/07/30 13:30:56;;;;;;;6.77;2.40;;;;;;;28.66;29.71;98003.75;8062743;29;20235;-84
2022/07/30 13:34:59;;;;;;;4.53;2.20;;;;;;;28.46;29.89;98010.56;8062844;29;20238;-83
2022/07/30 13:39:03;;;;;;;4.80;2.00;;;;;;;28.44;29.96;98005.44;8062651;29;20244;-83
2022/07/30 13:43:06;;;;;;;3.37;2.30;;;;;;;28.34;29.45;98010.19;8062619;29;20410;-83
2022/07/30 13:47:11;;;;;;;3.87;1.90;;;;;;;28.41;29.60;98008.47;8062073;29;20426;-90
2022/07/30 13:51:15;;;;;;;4.33;2.10;;;;;;;28.18;29.60;98008.50;8062190;29;20244;-81
2022/07/30 13:55:20;;;;;;;5.37;2.27;;;;;;;28.15;29.89;98016.00;8061700;29;20279;-82
2022/07/30 13:59:22;;;;;;;6.23;2.60;;;;;;;27.59;33.37;98008.22;8062859;29;20240;-88
2022/07/30 14:03:26;;;;;;;7.93;2.90;;;;;;;27.38;34.45;98017.66;8063052;29;20233;-93
2022/07/30 14:07:30;;;;;;;4.07;2.70;;;;;;;28.30;33.73;98018.72;8062318;29;20244;-88
2022/07/30 14:11:33;;;;;;;5.90;2.60;;;;;;;28.75;32.78;98019.63;8062295;29;20237;-87
2022/07/30 14:15:36;;;;;;;8.43;2.80;;;;;;;28.79;32.44;98007.63;8062418;29;20233;-89
2022/07/30 14:19:43;;;;;;;6.17;2.50;;;;;;;28.19;32.99;98014.63;8063371;29;20330;-94
2022/07/30 14:23:46;;;;;;;4.77;2.30;;;;;;;27.90;34.13;98015.38;8062465;29;20237;-88
2022/07/30 14:27:48;;;;;;;5.60;2.50;;;;;;;28.06;33.57;98008.09;8030524;29;20241;-86
2022/07/30 14:31:51;;;;;;;5.40;2.37;;;;;;;28.55;33.03;98009.50;8031550;29;20244;-86
2022/07/30 14:35:55;;;;;;;8.47;5.10;;;;;;;28.85;33.66;97996.22;8031299;29;20409;-89
2022/07/30 14:39:59;;;;;;;7.63;5.60;;;;;;;28.72;32.71;98007.50;8031530;29;20242;-89
2022/07/30 14:44:02;;;;;;;5.97;2.60;;;;;;;29.04;31.70;98003.66;8030987;29;20237;-89
2022/07/30 14:48:05;;;;;;;14.20;8.93;;;;;;;28.44;31.58;98001.94;8031765;29;20561;-89
2022/07/30 14:52:09;;;;;;;5.47;2.47;;;;;;;28.50;31.10;97997.72;8031338;29;20540;-92
2022/07/30 14:56:13;;;;;;;6.07;2.20;;;;;;;28.04;31.39;98010.09;8031263;29;20258;-89
2022/07/30 15:00:19;;;;;;;6.20;3.97;;;;;;;28.11;31.34;98006.72;8050353;29;20332;-89
2022/07/30 15:04:25;;;;;;;7.70;3.50;;;;;;;28.04;31.18;98003.94;8061463;29;20241;-90
2022/07/30 15:08:30;;;;;;;6.63;4.10;;;;;;;27.67;31.51;98008.16;8067014;29;20237;-93
2022/07/30 15:12:33;;;;;;;6.93;4.53;;;;;;;27.38;33.01;98022.09;8066893;29;20233;-83
2022/07/30 15:16:38;;;;;;;7.10;4.30;;;;;;;27.27;33.70;98036.63;8066185;29;20243;-81
2022/07/30 15:20:40;;;;;;;6.53;3.20;;;;;;;26.86;37.89;98050.81;8066129;29;20530;-83
2022/07/30 15:24:45;;;;;;;5.57;3.07;;;;;;;26.88;38.58;98048.88;8066016;29;20407;-83
2022/07/30 15:28:47;;;;;;;4.87;2.67;;;;;;;26.75;39.09;98048.56;8065153;29;20300;-83
2022/07/30 15:32:53;;;;;;;6.93;3.20;;;;;;;26.54;39.75;98051.72;8065543;29;20240;-84
2022/07/30 15:36:55;;;;;;;6.67;3.00;;;;;;;26.60;40.20;98047.56;8065783;29;20232;-82
2022/07/30 15:41:00;;;;;;;5.83;2.70;;;;;;;26.18;40.30;98059.16;8065541;29;20438;-81
2022/07/30 15:45:04;;;;;;;3.57;2.53;;;;;;;26.24;40.46;98064.66;8065521;29;20244;-80
2022/07/30 15:49:21;;;;;;;6.50;2.83;;;;;;;26.74;39.69;98059.34;8065211;29;20242;-80
2022/07/30 15:53:24;;;;;;;5.10;2.80;;;;;;;26.83;39.58;98069.78;8065437;29;20240;-83
2022/07/30 15:57:29;;;;;;;7.37;2.63;;;;;;;26.07;41.14;98074.41;8064023;29;20241;-83
2022/07/30 16:01:31;;;;;;;4.37;2.57;;;;;;;26.28;41.57;98068.63;8064862;29;20253;-84
2022/07/30 16:05:34;;;;;;;4.40;2.50;;;;;;;26.71;40.02;98061.34;8065105;29;20235;-83
2022/07/30 16:09:53;;;;;;;6.27;2.60;;;;;;;26.83;39.18;98067.13;8064537;29;20262;-82
2022/07/30 16:13:57;;;;;;;4.73;2.50;;;;;;;26.52;38.66;98053.69;8064794;29;20240;-80
2022/07/30 16:18:00;;;;;;;7.33;2.30;;;;;;;26.91;38.43;98063.63;8064030;29;20244;-79
2022/07/30 16:22:03;;;;;;;3.47;2.40;;;;;;;26.81;38.41;98071.78;8064685;29;20347;-79
2022/07/30 16:26:07;;;;;;;4.70;2.50;;;;;;;26.47;38.70;98069.31;8064168;29;20249;-80
2022/07/30 16:30:12;;;;;;;7.80;2.80;;;;;;;26.65;38.61;98066.47;8064183;29;20265;-80
2022/07/30 16:34:15;;;;;;;3.40;2.40;;;;;;;26.45;39.00;98072.13;8062511;29;20232;-78
2022/07/30 16:38:18;;;;;;;4.63;2.30;;;;;;;26.38;39.52;98088.88;8061682;29;20569;-79
2022/07/30 16:42:21;;;;;;;3.73;2.47;;;;;;;26.12;39.83;98081.88;8061742;29;20246;-76
2022/07/30 16:46:25;;;;;;;5.40;2.70;;;;;;;25.99;40.55;98085.03;8061006;29;20245;-77
2022/07/30 16:50:28;;;;;;;4.20;2.60;;;;;;;25.96;40.56;98077.38;8061589;29;20552;-79
2022/07/30 16:54:31;;;;;;;5.17;2.73;;;;;;;25.82;40.73;98083.31;8061547;29;20253;-79
2022/07/30 16:58:34;;;;;;;3.93;2.40;;;;;;;25.72;41.06;98084.28;8061229;29;20245;-78
2022/07/30 17:02:39;;;;;;;4.20;2.37;;;;;;;25.68;41.45;98082.94;8060905;29;20236;-81
2022/07/30 17:06:43;;;;;;;18.23;3.23;;;;;;;25.62;41.65;98083.56;8060591;29;20235;-80
2022/07/30 17:10:46;;;;;;;12.03;2.93;;;;;;;25.45;41.97;98087.16;8060994;29;20244;-81
2022/07/30 17:14:49;;;;;;;4.83;2.60;;;;;;;25.58;41.73;98087.53;8060077;29;20305;-82
2022/07/30 17:18:53;;;;;;;5.03;2.77;;;;;;;25.63;42.09;98082.59;8060562;29;20239;-78
2022/07/30 17:22:56;;;;;;;4.93;2.50;;;;;;;25.53;41.95;98085.38;8060502;29;20245;-79
2022/07/30 17:26:59;;;;;;;8.60;2.90;;;;;;;25.53;42.78;98092.47;8060395;29;20254;-89
2022/07/30 17:31:02;;;;;;;5.90;3.33;;;;;;;25.41;43.16;98097.22;8060863;29;20243;-78
2022/07/30 17:35:07;;;;;;;7.40;2.73;;;;;;;25.41;43.03;98094.59;8060280;29;20259;-77
2022/07/30 17:39:16;;;;;;;28.97;3.83;;;;;;;25.45;43.38;98095.09;8060236;29;20277;-78
2022/07/30 17:43:38;;;;;;;33.57;5.33;;;;;;;25.36;43.17;98087.13;8059914;29;20470;-80
2022/07/30 17:47:41;;;;;;;10.87;3.07;;;;;;;25.44;43.78;98086.31;8059738;29;20260;-80
2022/07/30 17:51:46;;;;;;;3.77;2.50;;;;;;;25.48;44.31;98092.97;8059677;29;20242;-80
2022/07/30 17:55:49;;;;;;;6.03;3.20;;;;;;;25.32;45.04;98096.38;8052149;29;20231;-80
2022/07/30 18:00:00;;;;;;;6.33;3.10;;;;;;;25.43;45.08;98105.84;8059406;29;20642;-79
2022/07/30 18:04:03;;;;;;;4.90;2.40;;;;;;;25.20;44.43;98105.56;8059840;29;20484;-80
2022/07/30 18:08:07;;;;;;;78.43;70.77;;;;;;;25.29;45.18;98106.47;8059560;29;20247;-80
2022/07/30 18:12:10;;;;;;;10.97;7.23;;;;;;;25.04;45.13;98108.94;8059924;29;20234;-80
2022/07/30 18:16:12;;;;;;;8.83;3.20;;;;;;;25.27;46.39;98105.78;8060146;29;20244;-79
2022/07/30 18:20:16;;;;;;;6.00;2.93;;;;;;;25.16;45.56;98112.16;8060219;29;20237;-80
2022/07/30 18:24:20;;;;;;;3.53;2.80;;;;;;;25.16;44.88;98125.41;8060206;29;20257;-79
2022/07/30 18:28:26;;;;;;;4.13;2.80;;;;;;;25.10;44.73;98124.22;8060136;29;20246;-81
2022/07/30 18:32:29;;;;;;;4.07;2.70;;;;;;;25.00;45.37;98133.25;8059858;29;20556;-79
2022/07/30 18:36:32;;;;;;;4.43;2.80;;;;;;;25.14;46.04;98132.69;8060072;29;20536;-78
2022/07/30 18:40:36;;;;;;;5.10;3.00;;;;;;;25.10;45.90;98136.63;8063246;29;20241;-81
2022/07/30 18:44:39;;;;;;;7.00;2.77;;;;;;;24.92;45.61;98129.56;8066996;29;20254;-79
2022/07/30 18:48:42;;;;;;;4.17;2.30;;;;;;;24.83;45.67;98142.88;8066353;29;20532;-79
2022/07/30 18:52:45;;;;;;;2.90;2.40;;;;;;;24.72;45.48;98136.03;8066732;29;20579;-80
2022/07/30 18:56:49;;;;;;;3.40;2.60;;;;;;;24.61;45.91;98144.22;8066706;29;20256;-82
2022/07/30 19:00:52;;;;;;;4.90;2.73;;;;;;;24.56;46.32;98148.16;8066037;29;20234;-81
2022/07/30 19:04:57;;;;;;;4.53;2.67;;;;;;;24.50;46.34;98151.41;8067871;29;20450;-84